Date,TemperatureHighF,TemperatureAvgF,TemperatureLowF,DewpointHighF,DewpointAvgF,DewpointLowF,HumidityHigh,HumidityAvg,HumidityLow,PressureMaxIn,PressureMinIn,WindSpeedMaxMPH,WindSpeedAvgMPH,GustSpeedMaxMPH,PrecipitationSumIn
2012-1-1,73,53,32,60,46,30,96,80,58,30.20,30.00,23,4,23,0.00
2012-1-2,57,46,36,43,25,12,78,46,26,30.15,30.00,24,5,24,0.00
2012-1-3,40,32,23,16,13,10,73,47,29,30.40,30.14,22,3,25,0.00
2012-1-4,50,33,17,24,16,13,91,55,23,30.44,30.19,16,2,16,0.00
2012-1-5,62,47,34,36,28,17,84,50,33,30.20,30.09,13,3,14,0.00
2012-1-6,68,47,28,41,33,26,95,65,29,30.19,30.06,16,2,16,0.00
2012-1-7,72,55,39,57,46,34,93,72,56,30.14,30.02,16,3,18,0.00
2012-1-8,73,56,40,59,51,39,97,84,58,30.24,30.11,14,1,17,0.04
2012-1-9,70,60,48,61,56,46,100,86,70,30.20,30.08,10,2,13,0.16
2012-1-10,69,60,56,62,58,54,97,92,73,30.09,29.95,9,1,9,0.24
2012-1-11,65,59,50,62,56,43,97,90,70,29.95,29.58,20,4,20,0.34
2012-1-12,65,55,46,52,46,33,90,74,53,29.81,29.62,28,7,28,0.00
2012-1-13,48,39,31,33,23,20,71,52,38,30.16,29.81,31,8,31,0.00
2012-1-14,52,40,28,26,23,19,76,53,31,30.31,30.16,21,4,21,0.00
2012-1-15,56,43,30,32,28,25,89,58,36,30.54,30.18,11,2,14,0.00
2012-1-16,58,44,28,41,34,26,94,71,41,30.60,30.36,11,1,11,0.00
2012-1-17,68,57,46,57,50,40,92,79,63,30.37,30.00,22,4,28,0.10
2012-1-18,63,55,37,58,49,34,95,80,46,30.09,29.91,15,3,16,0.14
2012-1-19,57,39,29,39,33,26,94,80,42,30.25,30.06,11,0,11,0.00
2012-1-20,68,51,34,52,42,32,95,75,39,30.18,30.07,17,1,22,0.06
2012-1-21,62,58,54,60,54,50,96,87,69,30.08,29.91,16,2,19,0.96
2012-1-22,56,48,42,56,47,40,97,95,91,30.30,30.07,10,2,11,0.00
2012-1-23,57,49,41,56,48,40,98,97,96,30.27,30.03,7,0,8,0.01
2012-1-24,72,59,42,60,50,40,98,77,37,30.23,30.03,14,2,15,0.00
2012-1-25,71,51,34,52,43,32,97,76,45,30.32,30.17,12,1,14,0.01
2012-1-26,77,61,47,66,56,44,97,85,63,30.18,29.79,14,2,15,0.00
2012-1-27,67,61,43,63,53,40,93,76,52,30.06,29.70,27,7,28,0.07
2012-1-28,67,52,34,45,40,33,96,66,38,30.23,30.04,16,3,19,0.00
2012-1-29,59,46,32,39,26,12,84,51,17,30.42,30.23,14,2,17,0.00
2012-1-30,65,48,28,32,27,22,87,50,20,30.49,30.35,11,1,12,0.00
2012-1-31,68,47,28,41,32,26,95,63,25,30.46,30.32,12,1,12,0.00
2012-2-1,74,55,34,56,46,32,96,74,46,30.34,30.11,17,2,17,0.00
2012-2-2,75,63,47,58,54,43,94,75,45,30.28,30.07,17,3,17,0.01
2012-2-3,66,58,47,43,39,35,84,50,37,30.45,30.28,9,2,14,0.00
2012-2-4,74,61,51,59,52,36,85,72,53,30.36,30.05,18,2,19,0.00
2012-2-5,79,66,51,62,56,47,94,74,43,30.15,29.95,21,4,25,0.00
2012-2-6,51,48,46,47,42,40,86,82,76,30.26,30.15,10,2,10,0.00
2012-2-7,61,50,36,44,40,34,95,72,45,30.20,30.12,6,1,10,0.00
2012-2-8,66,47,31,44,36,29,96,71,34,30.19,30.06,11,1,13,0.00
2012-2-9,56,42,30,40,34,28,95,75,48,30.31,30.19,10,1,11,0.00
2012-2-10,59,43,29,48,39,27,96,84,64,30.24,29.93,6,0,6,0.00
2012-2-11,55,45,29,44,29,7,93,57,32,30.24,29.82,27,7,30,0.00
2012-2-12,48,33,20,17,12,8,67,44,25,30.37,30.23,17,2,18,0.00
2012-2-13,58,38,18,29,20,14,90,54,20,30.33,30.14,14,1,14,0.00
2012-2-14,58,49,40,49,41,28,87,74,57,30.18,30.03,18,1,18,0.00
2012-2-15,70,57,43,52,46,40,94,69,41,30.26,30.10,9,1,9,0.00
2012-2-16,68,58,51,64,56,49,97,93,87,30.23,30.00,8,1,9,0.15
2012-2-17,68,58,45,56,51,43,93,80,55,30.13,30.03,8,1,8,0.00
2012-2-18,67,53,38,54,46,37,96,79,49,30.11,29.93,12,1,12,0.13
2012-2-19,60,52,41,58,50,0,96,94,86,29.95,29.61,16,3,17,0.89
2012-2-20,57,44,33,39,35,31,94,74,39,30.33,29.95,13,2,16,0.01
2012-2-21,65,48,32,49,41,30,96,79,52,30.33,30.07,17,2,19,0.00
2012-2-22,75,58,39,57,48,37,97,74,39,30.08,29.68,20,5,23,0.00
2012-2-23,82,71,63,66,61,56,93,74,43,29.75,29.65,23,9,28,0.00
2012-2-24,80,68,52,68,60,32,91,76,47,29.97,29.64,30,9,30,0.11
2012-2-25,58,49,36,33,28,23,83,47,27,30.31,29.96,24,6,24,0.00
2012-2-26,61,48,33,39,30,24,87,53,30,30.52,30.30,12,2,13,0.00
2012-2-27,54,51,47,52,47,36,96,87,57,30.43,30.34,6,1,7,0.10
2012-2-28,58,50,48,54,49,47,97,96,83,30.41,30.34,7,1,8,0.00
2012-2-29,80,67,55,67,60,50,94,79,58,30.28,29.95,15,4,28,0.23
2012-3-1,76,69,64,68,64,61,95,87,70,29.98,29.84,20,7,21,0.29
2012-3-2,79,70,64,67,64,62,96,82,63,29.97,29.75,23,6,24,0.00
2012-3-3,71,64,55,66,61,53,96,91,77,29.78,29.68,24,5,25,1.08
2012-3-4,57,50,39,53,36,22,95,63,28,30.12,29.68,31,6,32,0.44
2012-3-5,63,51,38,37,30,22,74,47,21,30.49,30.06,30,6,30,0.00
2012-3-6,62,48,31,41,29,24,79,51,26,30.64,30.49,14,1,15,0.00
2012-3-7,72,59,46,55,49,41,86,70,50,30.60,30.42,14,2,15,0.00
2012-3-8,76,65,52,60,56,50,96,74,49,30.42,30.15,16,2,18,0.00
2012-3-9,69,63,51,62,57,42,94,82,65,30.29,30.12,12,2,12,0.00
2012-3-10,66,53,37,43,35,30,88,56,29,30.45,30.28,17,2,17,0.00
2012-3-11,71,58,41,53,47,39,93,69,48,30.54,30.39,7,1,14,0.00
2012-3-12,75,63,50,57,53,47,91,73,51,30.44,30.27,15,2,15,0.00
2012-3-13,76,65,59,65,60,55,95,84,67,30.29,30.18,9,2,16,0.05
2012-3-14,85,67,53,67,58,52,97,76,38,30.25,30.15,12,1,14,0.01
2012-3-15,86,69,53,66,58,51,97,72,37,30.29,30.16,11,1,13,0.00
2012-3-16,84,70,61,70,62,59,95,78,50,30.24,30.10,14,2,15,0.01
2012-3-17,84,69,59,65,61,56,93,77,48,30.24,30.11,13,2,22,0.33
2012-3-18,63,58,54,61,56,53,95,94,92,30.24,30.19,2,0,2,0.00
2012-3-19,86,71,55,65,60,54,97,72,43,30.22,30.09,8,0,10,0.00
2012-3-20,85,72,55,68,61,53,96,70,46,30.22,30.09,12,1,12,0.00
2012-3-21,82,68,57,68,62,55,97,83,52,30.27,30.15,12,1,14,0.00
2012-3-22,83,69,61,69,64,59,97,84,55,30.26,30.13,13,1,13,0.00
2012-3-23,85,69,62,69,64,60,97,84,52,30.17,29.97,17,1,18,0.40
2012-3-24,79,70,63,69,64,59,96,85,65,30.01,29.73,16,4,18,0.06
2012-3-25,68,61,54,60,53,48,87,74,57,29.85,29.73,15,3,16,0.00
2012-3-26,83,66,52,57,51,43,95,65,25,30.04,29.84,15,2,15,0.00
2012-3-27,74,63,54,51,44,39,86,54,33,30.31,30.03,12,2,13,0.00
2012-3-28,82,65,51,64,55,47,92,72,45,30.27,29.98,20,3,20,0.00
2012-3-29,85,72,57,63,58,53,92,65,41,30.01,29.86,15,3,16,0.00
2012-3-30,86,70,55,65,58,53,96,68,39,30.00,29.87,20,3,23,0.00
2012-3-31,77,70,64,67,64,56,95,82,65,29.93,29.76,18,4,19,0.41
2012-4-1,86,71,58,62,59,52,97,70,34,29.90,29.76,11,1,12,0.01
2012-4-2,90,74,61,71,63,58,92,73,43,29.89,29.73,12,3,12,0.03
2012-4-3,83,73,66,72,66,62,92,82,65,30.00,29.87,16,2,16,0.00
2012-4-4,86,70,62,70,64,61,96,83,51,29.97,29.68,29,2,29,0.41
2012-4-5,85,72,60,69,63,57,95,78,42,29.72,29.60,24,4,24,0.09
2012-4-6,65,56,47,57,49,44,94,78,49,30.09,29.72,16,2,19,0.01
2012-4-7,74,56,38,53,43,37,96,68,33,30.28,30.09,8,1,10,0.00
2012-4-8,80,63,48,56,49,44,88,64,33,30.19,29.99,14,3,17,0.00
2012-4-9,79,66,51,53,46,33,94,54,20,30.13,29.93,14,2,17,0.00
2012-4-10,81,68,44,51,46,40,92,49,28,30.07,29.87,21,4,24,0.00
2012-4-11,69,60,47,51,36,27,75,41,23,30.11,29.90,17,3,20,0.00
2012-4-12,69,53,35,40,32,26,83,47,24,30.26,30.10,16,1,16,0.00
2012-4-13,75,56,35,50,41,33,95,63,30,30.27,30.16,10,1,12,0.00
2012-4-14,80,66,40,60,51,38,96,63,37,30.34,30.18,11,2,15,0.00
2012-4-15,81,71,57,67,62,54,96,74,58,30.25,30.17,14,2,14,0.00
2012-4-16,85,72,53,65,60,52,96,70,44,30.25,30.13,17,2,17,0.00
2012-4-17,88,75,60,68,63,58,95,68,45,30.20,30.02,10,2,12,0.00
2012-4-18,73,67,63,66,62,59,95,85,71,30.10,30.04,9,1,9,0.02
2012-4-19,68,62,58,63,59,56,96,91,82,30.06,29.99,4,1,10,0.07
2012-4-20,73,66,60,64,61,57,92,85,74,30.02,29.85,3,0,7,0.00
2012-4-21,82,71,62,69,63,60,97,79,48,29.88,29.66,9,1,9,0.00
2012-4-22,68,63,53,63,60,48,95,89,78,29.67,29.49,12,2,13,0.25
2012-4-23,61,53,44,49,39,34,87,61,38,29.82,29.64,22,4,22,0.00
2012-4-24,69,52,35,42,37,32,91,63,33,29.91,29.82,24,4,25,0.00
2012-4-25,84,64,45,59,51,40,92,64,41,29.98,29.86,18,4,19,0.00
2012-4-26,88,76,65,62,57,53,74,53,32,29.99,29.85,23,8,24,0.00
2012-4-27,88,79,67,68,64,59,82,62,47,30.04,29.91,17,4,19,0.01
2012-4-28,90,76,62,71,65,60,95,71,41,30.10,30.00,13,2,14,0.00
2012-4-29,93,76,61,69,63,59,97,71,33,30.16,30.05,13,1,14,0.00
2012-4-30,90,76,66,70,67,63,96,74,50,30.20,30.09,17,2,17,0.00
2012-5-1,90,75,62,69,65,60,97,74,42,30.20,30.06,12,2,15,0.00
2012-5-2,93,79,69,69,66,57,94,69,34,30.18,30.06,13,3,15,0.00
2012-5-3,90,78,61,69,66,59,97,69,45,30.17,30.06,9,2,12,0.00
2012-5-4,88,76,66,71,66,62,95,75,50,30.10,29.95,21,2,22,0.00
2012-5-5,95,80,63,72,66,61,97,67,35,29.98,29.78,19,4,22,0.00
2012-5-6,84,75,64,71,67,62,95,77,58,30.00,29.86,13,2,13,0.00
2012-5-7,85,74,65,68,65,63,95,78,50,30.03,29.91,15,1,15,0.00
2012-5-8,86,72,64,70,67,63,96,85,55,29.98,29.84,16,1,16,0.45
2012-5-9,79,69,64,72,67,63,97,93,78,29.90,29.66,12,1,18,0.60
2012-5-10,80,68,55,63,56,48,96,71,34,29.95,29.78,15,1,15,0.05
2012-5-11,82,68,53,61,54,49,95,66,39,30.21,29.95,14,1,14,0.00
2012-5-12,81,70,57,63,58,53,96,69,42,30.32,30.20,15,2,15,0.00
2012-5-13,77,68,60,67,64,58,96,88,68,30.25,30.08,13,1,21,0.37
2012-5-14,83,71,66,73,68,64,97,91,68,30.09,29.89,15,2,16,0.22
2012-5-15,87,73,64,75,68,63,97,85,59,30.01,29.88,12,1,13,0.24
2012-5-16,84,75,68,74,69,64,96,82,57,29.98,29.87,10,1,12,0.01
2012-5-17,79,69,64,70,65,63,95,88,67,29.99,29.89,10,1,11,0.46
2012-5-18,72,65,62,64,63,60,95,92,77,30.06,29.96,12,1,12,0.05
2012-5-19,79,68,58,62,56,49,95,69,40,30.12,30.02,15,2,15,0.00
2012-5-20,85,71,55,62,57,52,92,64,36,30.10,29.98,15,2,19,0.00
2012-5-21,87,74,60,68,63,57,95,71,45,30.04,29.87,9,1,9,0.00
2012-5-22,88,71,62,68,65,61,96,82,45,29.91,29.77,13,2,19,0.12
2012-5-23,88,75,63,70,64,58,96,72,40,29.90,29.81,15,2,16,0.00
2012-5-24,92,78,65,73,68,63,97,74,40,30.01,29.89,13,1,13,0.00
2012-5-25,92,78,65,74,69,63,96,75,46,30.12,30.00,13,1,15,0.00
2012-5-26,92,79,64,74,68,63,96,72,46,30.11,29.99,15,1,16,0.00
2012-5-27,91,79,70,73,69,65,89,72,49,30.06,29.97,14,2,16,0.00
2012-5-28,87,77,72,75,72,70,94,85,62,30.02,29.92,16,2,24,0.12
2012-5-29,84,76,71,75,72,69,96,87,66,29.96,29.78,14,2,15,1.29
2012-5-30,87,77,70,76,71,67,96,82,59,29.85,29.68,14,3,19,0.29
2012-5-31,93,79,65,76,68,61,97,74,36,29.90,29.80,12,1,12,0.00
2012-6-1,87,77,71,74,72,68,97,84,61,29.88,29.73,20,3,20,0.30
2012-6-2,81,73,62,70,61,54,95,69,39,29.93,29.78,15,2,17,0.00
2012-6-3,86,72,55,65,59,52,93,68,41,30.01,29.87,18,2,23,0.00
2012-6-4,82,73,68,73,69,64,96,87,68,29.87,29.72,13,3,23,0.56
2012-6-5,71,67,64,68,64,62,95,90,84,29.87,29.70,13,1,13,0.66
2012-6-6,77,68,62,67,64,60,96,88,67,29.99,29.82,11,1,12,0.23
2012-6-7,83,71,59,68,62,57,97,77,50,30.06,29.98,8,0,9,0.01
2012-6-8,87,74,59,67,63,58,97,72,45,30.07,29.98,12,0,12,0.00
2012-6-9,88,76,61,69,63,59,96,68,40,30.10,30.01,9,1,11,0.00
2012-6-10,81,75,71,77,71,65,94,87,75,30.15,30.03,13,1,13,0.36
2012-6-11,79,73,69,76,71,68,97,95,88,30.14,30.04,12,2,13,0.89
2012-6-12,87,76,70,78,72,69,96,89,69,30.07,29.87,12,2,12,0.03
2012-6-13,92,78,70,76,71,68,96,80,56,29.96,29.87,11,1,13,0.00
2012-6-14,86,76,68,69,66,60,96,73,48,30.11,29.96,9,1,9,0.00
2012-6-15,85,74,64,66,62,56,94,69,39,30.19,30.08,17,1,17,0.00
2012-6-16,85,72,60,62,59,53,94,68,37,30.24,30.11,17,1,17,0.00
2012-6-17,87,71,57,66,61,55,96,73,43,30.17,30.00,9,0,10,0.00
2012-6-18,88,77,59,69,64,57,97,68,47,30.12,30.04,9,1,9,0.00
2012-6-19,89,78,61,72,67,59,97,70,48,30.19,30.11,9,1,9,0.00
2012-6-20,90,78,65,74,69,63,97,75,53,30.18,30.08,13,0,14,0.00
2012-6-21,92,78,65,75,69,63,96,76,50,30.10,29.93,11,0,11,0.00
2012-6-22,93,79,63,74,68,62,96,73,47,29.98,29.86,10,1,11,0.00
2012-6-23,95,83,68,76,71,66,97,71,46,29.99,29.89,9,1,10,0.00
2012-6-24,93,81,72,79,74,70,96,81,53,30.00,29.87,13,1,13,1.99
2012-6-25,89,78,70,77,73,69,97,87,63,29.92,29.71,11,1,11,0.01
2012-6-26,82,76,64,72,66,59,96,74,52,29.84,29.70,20,1,20,0.00
2012-6-27,88,73,56,68,59,54,92,65,36,30.00,29.84,13,1,13,0.00
2012-6-28,96,78,59,74,65,58,97,69,40,30.07,29.92,11,1,12,0.00
2012-6-29,105,89,69,83,74,65,89,64,38,29.93,29.78,6,0,8,0.00
2012-6-30,107,91,72,85,78,70,96,69,39,29.89,29.80,6,0,8,0.00
2012-7-1,104,87,74,86,78,66,96,76,50,30.12,29.85,12,1,19,0.16
2012-7-2,95,82,74,76,71,66,84,68,50,30.11,29.96,20,2,20,0.00
2012-7-3,99,82,71,80,73,68,96,76,46,30.02,29.92,17,0,17,0.00
2012-7-4,98,83,68,76,72,66,96,70,45,30.06,29.92,13,2,14,0.00
2012-7-5,100,84,74,79,74,70,92,74,45,29.99,29.86,13,2,13,0.02
2012-7-6,94,84,69,77,73,67,95,71,53,30.00,29.90,9,2,9,0.00
2012-7-7,94,94,94,76,76,76,56,56,56,29.95,29.95,3,3,3,0.00
2012-7-8,98,87,74,77,74,71,91,67,45,30.04,29.88,17,3,17,0.00
2012-7-9,99,87,75,77,74,71,94,66,46,29.98,29.83,14,4,16,0.28
2012-7-10,93,79,71,81,74,69,97,86,61,30.08,29.87,18,1,18,1.24
2012-7-11,93,78,70,78,73,69,97,85,56,30.10,29.98,15,1,15,0.52
2012-7-12,86,76,72,78,73,70,97,91,72,30.13,30.05,16,0,16,0.01
2012-7-13,87,78,73,80,75,72,97,92,79,30.16,30.08,13,0,13,0.54
2012-7-14,93,80,72,80,75,70,98,86,59,30.21,30.10,14,0,14,0.11
2012-7-15,93,81,70,78,74,69,97,80,53,30.21,30.07,12,1,13,0.00
2012-7-16,95,80,70,78,73,69,97,81,48,30.11,29.94,10,1,12,0.02
2012-7-17,94,79,71,79,74,70,97,85,55,30.01,29.91,9,1,9,0.01
2012-7-18,94,81,72,79,74,71,97,81,56,30.05,29.93,13,2,13,0.00
2012-7-19,93,81,71,80,74,70,96,82,60,30.09,29.97,13,3,17,0.00
2012-7-20,92,82,75,78,75,72,95,79,58,30.02,29.92,20,5,20,0.00
2012-7-21,86,81,75,78,75,72,92,83,73,30.10,29.99,12,3,14,0.00
2012-7-22,97,82,73,81,76,71,96,85,54,30.19,30.09,9,1,12,0.16
2012-7-23,96,84,74,82,76,72,97,79,50,30.21,30.05,8,1,10,0.00
2012-7-24,98,85,75,80,75,73,95,75,46,30.09,29.89,22,3,26,0.40
2012-7-25,96,81,74,79,75,73,97,85,52,29.98,29.89,5,0,5,0.00
2012-7-26,102,89,77,82,78,75,96,73,42,29.94,29.83,10,1,10,0.00
2012-7-27,95,83,75,82,76,72,95,82,56,29.97,29.88,12,3,25,0.19
2012-7-28,94,82,74,82,77,72,97,85,63,30.02,29.91,10,1,10,0.01
2012-7-29,94,80,73,82,75,71,96,85,61,30.00,29.88,10,1,15,0.08
2012-7-30,90,77,71,78,73,70,97,87,63,29.99,29.89,13,1,16,0.00
2012-7-31,90,75,68,78,72,66,97,90,65,29.99,29.89,8,0,8,0.74
2012-8-1,93,82,73,79,75,72,97,82,55,29.94,29.84,6,0,10,0.03
2012-8-2,96,80,71,80,73,68,97,80,57,29.95,29.86,20,2,24,0.00
2012-8-3,97,80,68,79,72,66,96,79,49,30.06,29.93,15,1,15,0.00
2012-8-4,95,82,73,78,74,72,97,80,53,30.19,30.04,13,1,16,0.00
2012-8-5,88,77,72,79,74,70,97,90,70,30.22,30.11,12,0,20,0.65
2012-8-6,91,78,72,79,75,71,98,92,64,30.15,30.02,10,0,10,0.08
2012-8-7,90,79,75,80,76,73,97,90,68,30.06,29.96,14,1,14,0.04
2012-8-8,92,80,72,79,74,71,97,85,58,30.04,29.92,10,1,10,0.02
2012-8-9,92,80,71,80,74,69,96,84,60,30.02,29.85,13,1,16,0.84
2012-8-10,84,77,73,77,74,72,97,90,72,29.91,29.85,16,3,17,0.17
2012-8-11,79,74,71,75,73,69,97,95,87,29.97,29.86,12,1,13,0.71
2012-8-12,90,78,71,78,73,70,98,85,57,30.01,29.94,10,1,11,0.00
2012-8-13,92,78,65,74,68,62,98,75,41,30.06,29.95,11,1,12,0.00
2012-8-14,91,79,64,79,71,63,97,79,56,30.00,29.88,15,2,22,0.09
2012-8-15,89,78,70,79,73,69,97,86,63,29.99,29.91,12,2,14,0.01
2012-8-16,94,79,70,77,72,68,97,79,48,30.04,29.93,11,0,11,0.00
2012-8-17,91,78,69,80,72,67,97,84,62,30.01,29.83,18,1,18,0.07
2012-8-18,91,78,70,78,72,69,96,84,57,29.91,29.81,9,0,10,0.73
2012-8-19,84,74,70,76,72,69,98,93,72,29.93,29.83,12,1,12,0.72
2012-8-20,84,78,73,76,73,72,97,88,69,29.97,29.85,9,1,11,0.03
2012-8-21,85,77,72,75,72,70,97,86,66,30.04,29.94,7,1,12,0.03
2012-8-22,85,75,70,77,72,68,97,90,70,30.09,30.00,10,0,12,0.18
2012-8-23,84,75,70,75,71,68,97,89,71,30.13,30.05,16,1,16,0.15
2012-8-24,86,76,68,74,70,66,98,82,55,30.12,30.05,11,1,12,0.00
2012-8-25,89,74,62,71,65,61,97,77,45,30.16,30.07,9,1,10,0.01
2012-8-26,89,75,62,73,68,60,97,79,55,30.18,30.05,12,0,12,0.00
2012-8-27,90,76,67,78,72,65,96,88,66,30.10,29.99,17,1,17,0.06
2012-8-28,82,76,75,79,75,73,97,96,90,30.02,29.94,5,0,5,0.91
2012-8-29,90,78,71,80,74,70,98,90,65,30.03,29.93,10,1,10,0.32
2012-8-30,85,77,72,78,74,71,98,92,76,30.17,29.99,7,0,7,0.00
2012-8-31,93,82,74,81,76,73,98,83,59,30.25,30.11,9,0,9,0.01
2012-9-1,95,83,73,81,76,72,97,81,56,30.17,30.03,10,1,10,0.00
2012-9-2,95,81,72,81,75,71,97,84,56,30.06,29.93,16,1,19,0.00
2012-9-3,82,75,73,78,73,72,97,95,86,30.02,29.97,8,0,8,0.00
2012-9-4,90,78,74,79,75,72,96,88,67,29.99,29.90,9,1,15,0.47
2012-9-5,90,79,71,78,74,70,98,86,62,30.00,29.89,7,1,12,0.01
2012-9-6,88,79,73,79,74,71,95,87,68,30.00,29.88,11,2,14,0.00
2012-9-7,91,80,73,81,75,72,97,88,67,29.96,29.85,9,0,12,0.73
2012-9-8,91,80,73,79,74,71,97,84,62,29.85,29.72,15,3,16,0.44
2012-9-9,83,74,64,72,67,62,97,81,54,29.99,29.78,15,1,15,0.00
2012-9-10,85,69,58,68,61,56,97,78,41,30.14,29.99,9,0,10,0.00
2012-9-11,85,71,58,68,62,56,97,75,46,30.27,30.13,12,0,12,0.00
2012-9-12,83,70,57,66,60,56,97,75,46,30.33,30.23,16,0,16,0.00
2012-9-13,82,71,59,68,63,57,94,78,58,30.31,30.20,10,0,14,0.00
2012-9-14,86,72,61,71,65,58,93,79,52,30.24,30.13,11,1,12,0.00
2012-9-15,88,73,60,71,65,58,97,79,46,30.18,30.08,8,0,9,0.00
2012-9-16,89,75,62,73,68,60,97,80,54,30.13,30.01,8,0,8,0.00
2012-9-17,88,78,68,75,71,67,97,82,57,30.07,29.90,11,1,13,0.00
2012-9-18,80,76,72,75,73,70,94,90,80,29.90,29.74,19,3,21,0.02
2012-9-19,82,73,65,70,66,61,96,81,60,30.10,29.83,14,1,14,0.00
2012-9-20,81,69,58,68,63,56,95,82,59,30.14,30.04,9,0,11,0.00
2012-9-21,87,71,58,70,64,57,97,80,52,30.09,29.99,8,0,8,0.00
2012-9-22,88,73,59,73,66,57,97,80,53,30.06,29.93,15,2,15,0.00
2012-9-23,84,72,57,67,59,48,94,68,31,30.11,29.98,13,1,15,0.00
2012-9-24,80,66,52,60,55,50,95,72,46,30.19,30.08,12,1,13,0.00
2012-9-25,83,65,50,62,55,48,97,76,44,30.24,30.17,5,1,13,0.00
2012-9-26,88,69,50,68,60,49,96,76,46,30.24,30.13,5,0,10,0.00
2012-9-27,89,74,61,73,66,59,97,79,47,30.21,30.08,11,1,11,0.00
2012-9-28,88,76,60,73,68,59,97,77,50,30.13,29.98,9,1,13,0.00
2012-9-29,86,75,65,72,68,63,97,82,58,30.02,29.84,11,1,11,0.00
2012-9-30,71,69,64,68,67,63,97,93,88,29.90,29.85,7,0,7,0.00
2012-10-1,70,70,70,68,68,68,92,92,92,29.87,29.87,0,0,0,0.00
2012-10-2,87,79,75,76,74,71,96,84,62,29.97,29.73,8,2,16,0.00
2012-10-3,82,75,70,73,70,67,95,86,65,30.20,29.97,10,0,10,0.01
2012-10-4,81,73,68,71,69,67,97,88,70,30.26,30.18,9,1,10,0.07
2012-10-5,80,80,80,70,70,70,71,71,71,30.18,30.18,1,1,8,0.00
2012-10-6,88,72,59,69,63,58,98,77,41,30.03,29.88,8,1,15,0.00
2012-10-7,87,74,61,70,66,59,97,78,53,30.07,29.92,16,2,16,0.00
2012-10-8,64,58,54,59,53,51,92,85,77,30.14,30.04,10,2,14,0.03
2012-10-9,68,56,46,55,51,44,94,84,62,30.18,30.08,11,2,11,0.00
2012-10-10,78,58,43,61,52,41,97,80,50,30.16,30.03,15,2,16,0.00
2012-10-11,74,59,44,55,50,42,96,73,44,30.30,30.14,20,0,20,0.00
2012-10-12,83,65,47,63,54,45,96,73,45,30.27,30.13,10,1,10,0.00
2012-10-13,77,64,55,60,55,50,87,74,53,30.40,30.26,12,0,12,0.00
2012-10-14,83,67,52,68,60,50,94,80,55,30.31,30.03,12,1,14,0.01
2012-10-15,81,70,60,71,64,51,97,82,64,30.05,29.77,18,3,19,0.00
2012-10-16,75,58,43,52,46,41,96,69,34,29.99,29.87,12,0,12,0.00
2012-10-17,75,58,47,55,48,42,95,74,31,30.02,29.90,11,0,11,0.00
2012-10-18,82,66,50,68,59,48,97,81,56,29.92,29.78,11,1,13,0.00
2012-10-19,79,67,50,66,52,40,95,66,25,29.86,29.74,18,3,18,0.30
2012-10-20,76,58,42,51,46,40,96,70,37,29.96,29.82,19,2,19,0.00
2012-10-21,74,57,42,52,46,40,96,71,39,30.16,29.95,11,0,12,0.00
2012-10-22,81,59,41,55,48,39,96,72,38,30.25,30.13,7,0,9,0.00
2012-10-23,82,61,42,58,48,41,97,68,27,30.23,30.10,11,0,15,0.00
2012-10-24,84,65,49,64,56,46,97,77,47,30.20,30.07,8,0,8,0.00
2012-10-25,84,69,55,67,61,53,97,77,50,30.12,30.01,15,1,15,0.00
2012-10-26,80,69,61,64,60,56,96,77,49,30.04,29.85,16,2,17,0.00
2012-10-27,75,69,65,63,60,54,87,75,61,29.84,29.63,20,6,24,0.00
2012-10-28,76,67,58,56,53,45,77,63,44,29.70,29.58,15,4,15,0.00
2012-10-29,66,54,43,45,38,33,83,56,38,29.72,29.56,21,5,25,0.00
2012-10-30,61,52,46,36,32,27,61,46,34,29.74,29.56,24,6,24,0.00
2012-10-31,68,52,41,35,28,21,66,43,17,29.84,29.73,24,4,24,0.00
2012-11-1,68,49,32,34,27,21,86,48,18,29.96,29.83,19,3,22,0.00
2012-11-2,77,54,32,46,37,25,88,56,30,30.00,29.85,24,3,24,0.00
2012-11-3,78,57,37,51,42,35,94,62,27,30.12,29.97,10,1,10,0.00
2012-11-4,83,64,48,61,54,46,96,73,38,30.02,29.88,23,2,23,0.03
2012-11-5,65,55,48,55,45,41,93,70,43,30.07,29.95,11,1,12,0.00
2012-11-6,51,46,35,44,39,32,91,77,56,30.04,29.94,14,1,17,0.08
2012-11-7,50,41,34,45,38,31,95,90,81,30.00,29.89,10,1,11,0.01
2012-11-8,67,47,33,46,35,30,100,68,26,30.16,30.00,13,1,13,0.00
2012-11-9,72,49,29,43,34,27,100,64,24,30.30,30.16,12,0,12,0.00
2012-11-10,75,52,31,44,37,28,95,64,26,30.39,30.27,11,0,11,0.00
2012-11-11,77,58,37,60,49,34,94,75,51,30.45,30.35,13,0,14,0.00
2012-11-12,76,64,54,66,60,52,97,89,67,30.37,30.17,16,1,17,0.02
2012-11-13,64,57,51,63,54,46,97,90,82,30.33,30.16,13,2,13,0.03
2012-11-14,52,50,47,47,42,38,87,75,63,30.42,30.26,11,1,13,0.00
2012-11-15,50,46,43,45,42,39,95,89,64,30.29,30.23,12,2,12,1.41
2012-11-16,60,49,39,49,43,37,93,81,58,30.34,30.24,11,1,12,0.00
2012-11-17,59,50,39,40,37,31,94,64,37,30.42,30.33,15,2,17,0.00
2012-11-18,59,54,50,50,45,38,85,71,58,30.37,30.25,17,4,18,0.00
2012-11-19,67,57,49,54,49,46,92,77,62,30.27,30.15,15,3,16,0.00
2012-11-20,67,53,42,51,46,40,92,77,55,30.18,30.05,10,1,11,0.00
2012-11-21,66,49,36,51,41,34,100,77,44,30.17,30.07,15,1,15,0.00
2012-11-22,67,48,32,43,36,30,96,69,33,30.26,30.16,12,1,12,0.00
2012-11-23,72,51,30,48,40,28,95,69,39,30.19,29.96,20,2,20,0.00
2012-11-24,62,50,32,47,35,28,87,60,34,30.12,29.96,13,2,16,0.00
2012-11-25,61,41,26,31,28,24,93,65,27,30.23,30.08,12,1,14,0.00
2012-11-26,71,46,27,36,30,25,94,61,18,30.25,30.14,11,1,12,0.00
2012-11-27,53,47,37,50,44,32,95,88,68,30.21,30.09,7,0,7,0.18
2012-11-28,59,49,34,50,43,32,96,81,54,30.40,30.18,13,1,15,0.00
2012-11-29,62,43,28,43,32,26,96,71,32,30.49,30.37,11,0,11,0.00
2012-11-30,67,48,32,52,40,30,96,79,51,30.43,30.30,6,0,6,0.00
2012-12-1,71,56,44,55,49,42,94,79,57,30.40,30.31,9,0,11,0.00
2012-12-2,76,60,47,61,53,44,95,80,54,30.39,30.26,12,1,13,0.00
2012-12-3,77,59,49,64,54,47,97,84,50,30.35,30.24,10,1,14,0.00
2012-12-4,74,58,48,63,54,46,97,88,64,30.37,30.23,12,1,12,0.00
2012-12-5,75,62,51,61,56,50,97,83,58,30.24,30.10,15,1,15,0.01
2012-12-6,65,58,51,58,50,42,94,77,58,30.21,30.13,9,1,14,0.00
2012-12-7,62,54,49,53,47,41,90,77,71,30.15,30.00,9,1,9,0.00
2012-12-8,70,56,45,58,51,43,97,86,66,30.11,30.01,8,0,9,0.01
2012-12-9,75,62,49,66,59,47,97,89,71,30.14,29.99,14,1,14,0.00
2012-12-10,75,64,55,63,59,54,97,84,64,29.99,29.75,19,2,19,0.00
2012-12-11,64,60,55,59,53,46,94,77,65,30.11,29.76,8,2,11,0.00
2012-12-12,55,49,43,47,44,41,93,83,69,30.29,30.08,12,2,12,0.36
2012-12-13,54,44,36,46,41,34,94,88,71,30.36,30.21,15,2,15,0.11
2012-12-14,60,43,32,44,37,30,96,81,51,30.41,30.23,6,0,6,0.01
2012-12-15,59,48,35,50,43,33,95,84,64,30.26,30.10,6,0,7,0.00
2012-12-16,65,59,53,62,56,49,96,91,86,30.11,29.88,6,0,8,0.02
2012-12-17,63,59,56,62,58,55,97,96,94,29.91,29.71,13,2,18,0.04
2012-12-18,64,56,39,59,46,34,96,73,34,30.01,29.75,22,5,23,0.42
2012-12-19,71,50,32,47,40,30,96,73,39,30.12,30.00,13,2,14,0.00
2012-12-20,72,54,36,62,48,34,96,83,59,30.12,29.64,27,4,27,0.46
2012-12-21,50,45,40,34,28,21,65,52,41,30.02,29.81,19,12,36,0.00
2012-12-22,58,43,32,28,23,19,80,47,24,30.19,30.02,14,4,22,0.00
2012-12-23,60,42,26,37,29,22,91,63,33,30.23,30.09,12,1,15,0.00
2012-12-24,53,47,40,49,42,34,95,81,63,30.12,29.90,16,0,18,0.58
2012-12-25,54,52,50,52,50,49,96,95,92,30.09,29.92,8,1,10,0.59
2012-12-26,66,55,40,62,48,32,97,78,53,29.93,29.55,31,10,35,0.21
2012-12-27,56,43,34,38,34,31,90,71,49,30.08,29.85,19,4,23,0.00
2012-12-28,53,42,31,42,36,29,100,80,60,30.17,29.92,8,0,8,0.00
2012-12-29,54,46,39,48,41,32,96,83,66,30.10,29.74,25,6,31,0.72
2012-12-30,52,39,28,32,28,24,90,68,36,30.44,30.10,13,1,15,0.00
2012-12-31,60,43,26,47,35,24,94,76,45,30.45,30.19,15,2,15,0.00
2013-1-1,66,55,46,57,50,43,93,82,70,30.19,29.93,11,1,11,0.00